Time;durP1;ratioP1;P1;durP2;ratioP2;P2;SDS_P1;SDS_P2;PMS_P1;PMS_P2;Temp;Humidity;BMP_temperature;BMP_pressure;BME280_temperature;BME280_humidity;BME280_pressure;Samples;Min_cycle;Max_cycle;Signal;HPM_P1;HPM_P2
2022/11/30 00:00:50;;;;;;;62.92;34.55;;;8.00;99.90;;;;;;5069366;28;20559;-76
2022/11/30 00:03:15;;;;;;;63.38;34.33;;;8.00;99.90;;;;;;5069756;28;20223;-75
2022/11/30 00:05:41;;;;;;;59.03;33.17;;;8.00;99.90;;;;;;5085596;28;20178;-76
2022/11/30 00:08:07;;;;;;;64.22;34.40;;;8.00;99.90;;;;;;5070683;28;20543;-75
2022/11/30 00:10:33;;;;;;;72.15;35.42;;;8.00;99.90;;;;;;5068022;28;20238;-76
2022/11/30 00:12:59;;;;;;;68.18;34.78;;;8.00;99.90;;;;;;5059197;28;20279;-76
2022/11/30 00:15:25;;;;;;;68.78;34.78;;;8.00;99.90;;;;;;5075948;28;20622;-75
2022/11/30 00:17:55;;;;;;;75.63;35.33;;;8.00;99.90;;;;;;5055099;28;20592;-76
2022/11/30 00:20:21;;;;;;;69.40;35.17;;;8.00;99.90;;;;;;5073342;28;20213;-75
2022/11/30 00:22:46;;;;;;;70.00;35.10;;;7.90;99.90;;;;;;5059593;28;20178;-79
2022/11/30 00:25:12;;;;;;;76.50;35.63;;;7.90;99.90;;;;;;5068186;28;20350;-75
2022/11/30 00:27:38;;;;;;;82.22;36.80;;;7.90;99.90;;;;;;5073023;28;20178;-75
2022/11/30 00:30:04;;;;;;;69.18;35.15;;;7.90;99.90;;;;;;5074172;28;20626;-77
2022/11/30 00:32:30;;;;;;;79.95;37.30;;;7.90;99.90;;;;;;5068913;28;20564;-76
2022/11/30 00:34:56;;;;;;;78.15;36.13;;;7.90;99.90;;;;;;5072207;28;20579;-76
2022/11/30 00:37:22;;;;;;;78.05;37.67;;;7.80;99.90;;;;;;5073146;28;20186;-76
2022/11/30 00:39:48;;;;;;;94.82;38.88;;;7.80;99.90;;;;;;5073409;28;20281;-76
2022/11/30 00:42:14;;;;;;;78.60;37.35;;;7.70;99.90;;;;;;5071673;28;20187;-75
2022/11/30 00:44:39;;;;;;;77.82;37.30;;;7.70;99.90;;;;;;5057305;28;20210;-75
2022/11/30 00:47:05;;;;;;;83.03;36.50;;;7.60;99.90;;;;;;5083649;28;20205;-76
2022/11/30 00:49:32;;;;;;;78.32;37.05;;;7.70;99.90;;;;;;5073691;28;20650;-75
2022/11/30 00:51:59;;;;;;;85.97;36.97;;;7.60;99.90;;;;;;5073994;28;20278;-75
2022/11/30 00:54:24;;;;;;;87.18;38.30;;;7.60;99.90;;;;;;5063496;28;20178;-78
2022/11/30 00:56:50;;;;;;;79.40;37.28;;;7.60;99.90;;;;;;5070289;28;20182;-75
2022/11/30 00:59:16;;;;;;;73.00;37.28;;;7.60;99.90;;;;;;5063994;28;20224;-75
2022/11/30 01:01:42;;;;;;;80.35;37.58;;;7.60;99.90;;;;;;5070934;28;20241;-75
2022/11/30 01:04:07;;;;;;;83.10;38.47;;;7.60;99.90;;;;;;5067303;28;20187;-76
2022/11/30 01:06:33;;;;;;;83.07;38.70;;;7.60;99.90;;;;;;5059424;28;20188;-75
2022/11/30 01:08:59;;;;;;;71.97;36.78;;;7.60;99.90;;;;;;5071714;28;20750;-75
2022/11/30 01:11:27;;;;;;;76.53;37.65;;;7.70;99.90;;;;;;5070643;28;20195;-75
2022/11/30 01:13:54;;;;;;;83.85;36.38;;;7.70;99.90;;;;;;5067008;28;20194;-78
2022/11/30 01:16:23;;;;;;;73.35;36.92;;;7.70;99.90;;;;;;5058725;28;20183;-75
2022/11/30 01:18:49;;;;;;;79.43;35.78;;;7.70;99.90;;;;;;5072993;28;20261;-75
2022/11/30 01:21:19;;;;;;;73.00;35.65;;;7.70;99.90;;;;;;5071650;28;20669;-75
2022/11/30 01:23:45;;;;;;;74.60;35.80;;;7.80;99.90;;;;;;5058326;28;20195;-75
2022/11/30 01:26:11;;;;;;;70.95;36.28;;;7.70;99.90;;;;;;5071336;28;20228;-75
2022/11/30 01:28:39;;;;;;;76.35;36.65;;;7.70;99.90;;;;;;5070745;28;20204;-75
2022/11/30 01:31:08;;;;;;;72.55;36.50;;;7.70;99.90;;;;;;5071029;28;20189;-76
2022/11/30 01:33:34;;;;;;;70.20;35.35;;;7.70;99.90;;;;;;5074197;28;20246;-75
2022/11/30 01:36:06;;;;;;;73.63;35.97;;;7.70;99.90;;;;;;5068890;28;20247;-75
2022/11/30 01:38:41;;;;;;;73.43;34.60;;;7.70;99.90;;;;;;5073027;28;20184;-74
2022/11/30 01:41:09;;;;;;;68.93;36.45;;;7.70;99.90;;;;;;5071310;28;20294;-74
2022/11/30 01:43:37;;;;;;;70.10;36.08;;;7.70;99.90;;;;;;5067965;28;20190;-75
2022/11/30 01:46:04;;;;;;;73.15;34.92;;;7.60;99.90;;;;;;5058714;28;20289;-79
2022/11/30 01:48:30;;;;;;;65.50;35.38;;;7.70;99.90;;;;;;5056199;28;20205;-78
2022/11/30 01:50:56;;;;;;;62.33;34.55;;;7.70;99.90;;;;;;5062625;28;20339;-76
2022/11/30 01:53:23;;;;;;;69.88;35.50;;;7.70;99.90;;;;;;5068669;28;20187;-75
2022/11/30 01:55:49;;;;;;;65.57;36.15;;;7.70;99.90;;;;;;5066254;28;20187;-75
2022/11/30 01:58:22;;;;;;;67.80;34.63;;;7.60;99.90;;;;;;5070735;28;20220;-74
2022/11/30 02:00:48;;;;;;;63.13;35.30;;;7.60;99.90;;;;;;5071190;28;20205;-76
2022/11/30 02:03:17;;;;;;;59.08;34.30;;;7.60;99.90;;;;;;5073544;28;20198;-75
2022/11/30 02:05:42;;;;;;;60.35;34.53;;;7.60;99.90;;;;;;5079878;28;20372;-75
2022/11/30 02:08:09;;;;;;;65.30;35.03;;;7.60;99.90;;;;;;5060907;28;20186;-74
2022/11/30 02:10:40;;;;;;;62.47;34.63;;;7.60;99.90;;;;;;5055529;28;20272;-76
2022/11/30 02:13:20;;;;;;;70.53;35.35;;;7.60;99.90;;;;;;5068812;28;20174;-76
2022/11/30 02:15:58;;;;;;;66.22;36.60;;;7.60;99.90;;;;;;5071548;28;20182;-78
2022/11/30 02:18:52;;;;;;;64.95;35.22;;;7.60;99.90;;;;;;5059990;28;20186;-76
2022/11/30 02:21:52;;;;;;;64.32;36.38;;;7.60;99.90;;;;;;5067335;28;20244;-75
2022/11/30 02:24:29;;;;;;;64.35;34.55;;;7.60;99.90;;;;;;5063464;28;20195;-75
2022/11/30 02:27:17;;;;;;;58.55;34.25;;;7.50;99.90;;;;;;5068149;28;20184;-74
2022/11/30 02:29:48;;;;;;;60.75;34.30;;;7.60;99.90;;;;;;5058753;28;20179;-75
2022/11/30 02:32:38;;;;;;;62.13;35.47;;;7.50;99.90;;;;;;5069487;28;20621;-74
2022/11/30 02:35:06;;;;;;;60.95;34.40;;;7.50;99.90;;;;;;5070475;28;20183;-75
2022/11/30 02:37:34;;;;;;;61.90;34.20;;;7.50;99.90;;;;;;5070648;28;20192;-75
2022/11/30 02:39:59;;;;;;;61.10;34.17;;;7.60;99.90;;;;;;5057274;28;20224;-80
2022/11/30 02:42:25;;;;;;;62.90;34.78;;;7.50;99.90;;;;;;5059714;28;20218;-75
2022/11/30 02:44:52;;;;;;;62.38;33.53;;;7.60;99.90;;;;;;5072872;28;20193;-75
2022/11/30 02:47:40;;;;;;;59.20;33.55;;;7.60;99.90;;;;;;5070506;28;20261;-76
2022/11/30 02:50:17;;;;;;;62.38;33.35;;;7.60;99.90;;;;;;5062173;28;20179;-79
2022/11/30 02:52:44;;;;;;;62.60;34.20;;;7.50;99.90;;;;;;5080787;28;20198;-75
2022/11/30 02:55:14;;;;;;;68.93;36.08;;;7.60;99.90;;;;;;5064873;28;20183;-75
2022/11/30 02:57:39;;;;;;;63.28;33.30;;;7.60;99.90;;;;;;5071253;28;20178;-75
2022/11/30 03:00:08;;;;;;;63.00;35.05;;;7.60;99.90;;;;;;5066057;28;20193;-77
2022/11/30 03:02:33;;;;;;;63.22;34.70;;;7.60;99.90;;;;;;5060857;28;20178;-76
2022/11/30 03:04:59;;;;;;;67.45;34.45;;;7.60;99.90;;;;;;5069546;28;20183;-75
2022/11/30 03:07:25;;;;;;;65.20;34.55;;;7.50;99.90;;;;;;5066748;28;20182;-75
2022/11/30 03:09:50;;;;;;;57.40;32.97;;;7.50;99.90;;;;;;5071949;28;20258;-76
2022/11/30 03:12:16;;;;;;;65.30;35.13;;;7.50;99.90;;;;;;5084354;28;20611;-76
2022/11/30 03:14:42;;;;;;;70.40;34.88;;;7.50;99.90;;;;;;5052804;28;20820;-75
2022/11/30 03:17:08;;;;;;;65.53;34.50;;;7.50;99.90;;;;;;5055594;28;20186;-81
2022/11/30 03:19:33;;;;;;;63.00;35.00;;;7.50;99.90;;;;;;5071372;28;20380;-75
2022/11/30 03:21:59;;;;;;;68.18;36.00;;;7.40;99.90;;;;;;5071389;28;20209;-76
2022/11/30 03:24:25;;;;;;;62.35;34.55;;;7.50;99.90;;;;;;5066461;28;20521;-76
2022/11/30 03:26:51;;;;;;;67.18;34.88;;;7.50;99.90;;;;;;5058823;28;20239;-76
2022/11/30 03:29:17;;;;;;;64.75;34.85;;;7.50;99.90;;;;;;5066670;28;20308;-76
2022/11/30 03:31:43;;;;;;;65.85;34.83;;;7.40;99.90;;;;;;5070109;28;20178;-76
2022/11/30 03:34:09;;;;;;;61.78;34.58;;;7.50;99.90;;;;;;5070549;28;20186;-76
2022/11/30 03:36:35;;;;;;;67.13;35.28;;;7.40;99.90;;;;;;5065566;28;20187;-79
2022/11/30 03:39:01;;;;;;;64.07;35.15;;;7.40;99.90;;;;;;5068822;28;20179;-79
2022/11/30 03:41:27;;;;;;;64.45;35.38;;;7.40;99.90;;;;;;5068734;28;20680;-76
2022/11/30 03:43:53;;;;;;;60.80;35.15;;;7.40;99.90;;;;;;5060506;28;20195;-75
2022/11/30 03:46:19;;;;;;;67.40;36.47;;;7.40;99.90;;;;;;5065254;28;20763;-75
2022/11/30 03:48:45;;;;;;;67.32;34.80;;;7.50;99.90;;;;;;5054001;28;21041;-77
2022/11/30 03:51:11;;;;;;;64.40;35.45;;;7.50;99.90;;;;;;5065834;28;20277;-76
2022/11/30 03:53:37;;;;;;;61.58;34.95;;;7.40;99.90;;;;;;5069400;28;20183;-75
2022/11/30 03:56:06;;;;;;;58.53;34.10;;;7.50;99.90;;;;;;5069615;28;20174;-75
2022/11/30 03:58:32;;;;;;;59.90;34.42;;;7.50;99.90;;;;;;5059430;28;20179;-75
2022/11/30 04:01:03;;;;;;;62.65;33.72;;;7.50;99.90;;;;;;5067273;28;20214;-76
2022/11/30 04:03:29;;;;;;;59.28;34.42;;;7.50;99.90;;;;;;5074282;28;20218;-75
2022/11/30 04:05:56;;;;;;;65.57;35.03;;;7.50;99.90;;;;;;5077316;28;20583;-76
2022/11/30 04:08:22;;;;;;;58.45;33.97;;;7.50;99.90;;;;;;5060155;28;20202;-77
2022/11/30 04:10:53;;;;;;;58.78;34.20;;;7.50;99.90;;;;;;5056346;28;20690;-76
2022/11/30 04:13:20;;;;;;;61.53;34.03;;;7.50;99.90;;;;;;5071681;28;20205;-76
2022/11/30 04:15:47;;;;;;;62.60;34.58;;;7.50;99.90;;;;;;5062027;28;20183;-77
2022/11/30 04:18:13;;;;;;;56.47;33.05;;;7.50;99.90;;;;;;5057000;28;20182;-77
2022/11/30 04:20:39;;;;;;;64.65;34.53;;;7.50;99.90;;;;;;5065790;28;20190;-76
2022/11/30 04:23:05;;;;;;;61.13;34.55;;;7.50;99.90;;;;;;5072917;28;20205;-75
2022/11/30 04:25:31;;;;;;;60.67;34.47;;;7.50;99.90;;;;;;5086274;28;20269;-76
2022/11/30 04:27:56;;;;;;;67.00;35.05;;;7.50;99.90;;;;;;5062761;28;20237;-75
2022/11/30 04:30:22;;;;;;;60.30;33.25;;;7.50;99.90;;;;;;5066216;28;20182;-76
2022/11/30 04:32:48;;;;;;;65.93;34.50;;;7.50;99.90;;;;;;5073826;28;20186;-75
2022/11/30 04:35:13;;;;;;;63.78;34.00;;;7.50;99.90;;;;;;5074530;28;20707;-76
2022/11/30 04:37:39;;;;;;;64.97;34.45;;;7.50;99.90;;;;;;5074538;28;20187;-76
2022/11/30 04:40:06;;;;;;;67.47;34.55;;;7.50;99.90;;;;;;5090952;28;20181;-75
2022/11/30 04:42:31;;;;;;;67.93;35.05;;;7.50;99.90;;;;;;5073417;28;20174;-76
2022/11/30 04:44:57;;;;;;;66.75;33.05;;;7.50;99.90;;;;;;5088918;28;20191;-76
2022/11/30 04:47:23;;;;;;;72.15;34.25;;;7.60;99.90;;;;;;5062596;28;20189;-79
2022/11/30 04:49:48;;;;;;;71.72;34.22;;;7.60;99.90;;;;;;5060008;28;20183;-78
2022/11/30 04:52:14;;;;;;;72.63;34.35;;;7.60;99.90;;;;;;5073350;28;20201;-75
2022/11/30 04:54:43;;;;;;;67.07;34.60;;;7.60;99.90;;;;;;5068226;28;20537;-77
2022/11/30 04:57:09;;;;;;;75.28;35.53;;;7.50;99.90;;;;;;5079545;28;20180;-75
2022/11/30 04:59:34;;;;;;;73.13;35.17;;;7.60;99.90;;;;;;5068283;28;20232;-77
2022/11/30 05:02:00;;;;;;;84.85;37.38;;;7.50;99.90;;;;;;5059817;28;20558;-78
2022/11/30 05:04:26;;;;;;;91.93;37.42;;;7.50;99.90;;;;;;5074453;28;20186;-75
2022/11/30 05:06:51;;;;;;;89.15;35.53;;;7.50;99.90;;;;;;5074856;28;20179;-75
2022/11/30 05:09:17;;;;;;;82.32;35.13;;;7.50;99.90;;;;;;5072184;28;20241;-75
2022/11/30 05:11:43;;;;;;;80.32;33.90;;;7.40;99.90;;;;;;5060090;28;20206;-77
2022/11/30 05:14:09;;;;;;;82.38;34.05;;;7.40;99.90;;;;;;5055610;28;22045;-76
2022/11/30 05:16:34;;;;;;;81.65;35.00;;;7.40;99.90;;;;;;5057064;28;20248;-76
2022/11/30 05:19:00;;;;;;;84.43;33.92;;;7.40;99.90;;;;;;5059906;28;20182;-76
2022/11/30 05:21:26;;;;;;;80.13;32.85;;;7.40;99.90;;;;;;5071601;28;20199;-75
2022/11/30 05:23:52;;;;;;;86.10;34.95;;;7.40;99.90;;;;;;5073324;28;20221;-76
2022/11/30 05:26:17;;;;;;;78.65;33.78;;;7.40;99.90;;;;;;5083557;28;20582;-80
2022/11/30 05:28:43;;;;;;;83.38;34.28;;;7.40;99.90;;;;;;5059344;28;20191;-75
2022/11/30 05:31:09;;;;;;;77.93;33.58;;;7.40;99.90;;;;;;5070317;28;20252;-75
2022/11/30 05:33:34;;;;;;;83.05;34.65;;;7.40;99.90;;;;;;5066187;28;20213;-77
2022/11/30 05:36:00;;;;;;;87.78;33.55;;;7.40;99.90;;;;;;5069849;28;20171;-75
2022/11/30 05:38:26;;;;;;;82.55;34.70;;;7.40;99.90;;;;;;5063273;28;20187;-76
2022/11/30 05:40:57;;;;;;;76.97;34.13;;;7.40;99.90;;;;;;5061576;28;20206;-76
2022/11/30 05:43:23;;;;;;;78.85;33.00;;;7.40;99.90;;;;;;5057962;28;20179;-76
2022/11/30 05:45:48;;;;;;;76.25;33.08;;;7.40;99.90;;;;;;5070318;28;20225;-78
2022/11/30 05:48:14;;;;;;;66.60;31.65;;;7.40;99.90;;;;;;5088617;28;20197;-75
2022/11/30 05:50:40;;;;;;;75.88;31.42;;;7.30;99.90;;;;;;5089306;28;20174;-75
2022/11/30 05:53:05;;;;;;;71.53;32.03;;;7.30;99.90;;;;;;5070168;28;20691;-75
2022/11/30 05:55:32;;;;;;;71.15;31.90;;;7.30;99.90;;;;;;5061903;28;20441;-75
2022/11/30 05:57:58;;;;;;;77.60;32.40;;;7.30;99.90;;;;;;5064030;28;20657;-76
2022/11/30 06:00:23;;;;;;;77.70;31.60;;;7.30;99.90;;;;;;5069422;28;20257;-75
2022/11/30 06:02:55;;;;;;;73.10;31.70;;;7.30;99.90;;;;;;5064380;28;20188;-75
2022/11/30 06:05:21;;;;;;;77.95;31.45;;;7.30;99.90;;;;;;5066273;28;20186;-76
2022/11/30 06:07:46;;;;;;;69.05;31.30;;;7.30;99.90;;;;;;5072361;28;20266;-76
2022/11/30 06:10:12;;;;;;;72.18;32.67;;;7.30;99.90;;;;;;5053652;28;20270;-76
2022/11/30 06:12:38;;;;;;;72.50;31.38;;;7.30;99.90;;;;;;5063795;28;20660;-75
2022/11/30 06:15:04;;;;;;;75.45;33.05;;;7.30;99.90;;;;;;5072096;28;20728;-76
2022/11/30 06:17:30;;;;;;;71.43;32.08;;;7.30;99.90;;;;;;5053762;28;20198;-79
2022/11/30 06:19:55;;;;;;;66.50;31.30;;;7.30;99.90;;;;;;5059842;28;20183;-76
2022/11/30 06:22:21;;;;;;;65.70;29.58;;;7.30;99.90;;;;;;5070974;28;20194;-76
2022/11/30 06:24:47;;;;;;;75.55;30.75;;;7.30;99.90;;;;;;5071256;28;20239;-75
2022/11/30 06:27:12;;;;;;;69.95;31.40;;;7.30;99.90;;;;;;5060555;28;20327;-75
2022/11/30 06:29:38;;;;;;;75.35;31.48;;;7.30;99.90;;;;;;5062445;28;20191;-74
2022/11/30 06:32:06;;;;;;;67.78;30.38;;;7.30;99.90;;;;;;5073786;28;20174;-74
2022/11/30 06:34:32;;;;;;;62.28;29.17;;;7.30;99.90;;;;;;5066838;28;20208;-74
2022/11/30 06:36:58;;;;;;;61.25;28.08;;;7.30;99.90;;;;;;5066540;28;20663;-74
2022/11/30 06:39:23;;;;;;;65.70;30.40;;;7.30;99.90;;;;;;5071127;28;20664;-75
2022/11/30 06:41:49;;;;;;;63.45;29.02;;;7.30;99.90;;;;;;5061250;28;20214;-76
2022/11/30 06:44:15;;;;;;;62.10;28.67;;;7.30;99.90;;;;;;5086779;28;20558;-76
2022/11/30 06:46:40;;;;;;;53.85;26.23;;;7.30;99.90;;;;;;5058278;28;20634;-77
2022/11/30 06:49:06;;;;;;;52.95;26.77;;;7.20;99.90;;;;;;5057280;28;20221;-76
2022/11/30 06:51:32;;;;;;;54.13;26.17;;;7.20;99.90;;;;;;5071122;28;20195;-76
2022/11/30 06:53:58;;;;;;;52.53;25.48;;;7.20;99.90;;;;;;5071377;28;20190;-75
2022/11/30 06:56:24;;;;;;;58.15;27.52;;;7.20;99.90;;;;;;5068578;28;20554;-75
2022/11/30 06:58:50;;;;;;;54.15;27.00;;;7.20;99.90;;;;;;5059240;28;20199;-76
2022/11/30 07:01:16;;;;;;;50.00;25.88;;;7.20;99.90;;;;;;5054580;28;20265;-76
2022/11/30 07:03:42;;;;;;;47.95;24.77;;;7.20;99.90;;;;;;5057275;28;20186;-75
2022/11/30 07:06:12;;;;;;;46.88;25.30;;;7.20;99.90;;;;;;5047039;28;20199;-75
2022/11/30 07:08:39;;;;;;;45.75;24.10;;;7.20;99.90;;;;;;5081258;28;20571;-74
2022/11/30 07:11:06;;;;;;;43.88;23.60;;;7.20;99.90;;;;;;5070452;28;20242;-74
2022/11/30 07:13:32;;;;;;;46.33;22.95;;;7.20;99.90;;;;;;5068442;28;20603;-74
2022/11/30 07:15:58;;;;;;;43.78;23.40;;;7.20;99.90;;;;;;5071349;28;20174;-76
2022/11/30 07:18:24;;;;;;;44.05;23.35;;;7.20;99.90;;;;;;5050416;28;20570;-75
2022/11/30 07:20:49;;;;;;;42.88;23.35;;;7.10;99.90;;;;;;5061613;28;20202;-80
2022/11/30 07:26:08;;;;;;;40.28;23.02;;;7.20;99.90;;;;;;5067023;28;20210;-77
2022/11/30 07:28:42;;;;;;;40.00;22.42;;;7.20;99.90;;;;;;5068826;28;20182;-76
2022/11/30 07:31:37;;;;;;;39.67;22.00;;;7.20;99.90;;;;;;5062608;28;20204;-81
2022/11/30 07:34:08;;;;;;;40.95;22.67;;;7.20;99.90;;;;;;5070043;28;20183;-76
2022/11/30 07:36:35;;;;;;;39.00;22.42;;;7.20;99.90;;;;;;5065086;28;20204;-76
2022/11/30 07:39:02;;;;;;;40.67;21.98;;;7.20;99.90;;;;;;5067126;28;20178;-76
2022/11/30 07:41:28;;;;;;;38.58;22.40;;;7.20;99.90;;;;;;5071640;28;20218;-77
2022/11/30 07:43:54;;;;;;;41.53;23.50;;;7.10;99.90;;;;;;5056230;28;20194;-77
2022/11/30 07:46:19;;;;;;;45.58;22.65;;;7.20;99.90;;;;;;5066705;28;20182;-76
2022/11/30 07:48:46;;;;;;;40.20;22.63;;;7.20;99.90;;;;;;5071646;28;20201;-76
2022/11/30 07:51:17;;;;;;;40.22;24.55;;;7.20;99.90;;;;;;5060433;28;20475;-76
2022/11/30 07:53:44;;;;;;;41.55;23.92;;;7.20;99.90;;;;;;5075891;28;20629;-76
2022/11/30 07:56:12;;;;;;;41.08;22.83;;;7.20;99.90;;;;;;5072061;28;20543;-76
2022/11/30 07:58:39;;;;;;;40.83;22.65;;;7.20;99.90;;;;;;5063918;28;20182;-75
2022/11/30 08:01:07;;;;;;;38.90;23.38;;;7.20;99.90;;;;;;5061936;28;20241;-78
2022/11/30 08:03:33;;;;;;;40.15;22.35;;;7.20;99.90;;;;;;5063081;28;20191;-76
2022/11/30 08:06:03;;;;;;;41.05;22.35;;;7.20;99.90;;;;;;5071624;28;20199;-76
2022/11/30 08:08:31;;;;;;;36.42;22.35;;;7.20;99.90;;;;;;5063161;28;20187;-76
2022/11/30 08:10:58;;;;;;;40.00;22.95;;;7.20;99.90;;;;;;5059996;28;20226;-78
2022/11/30 08:13:24;;;;;;;34.58;21.70;;;7.20;99.90;;;;;;5089712;28;20558;-74
2022/11/30 08:15:50;;;;;;;39.78;23.38;;;7.20;99.90;;;;;;5073261;28;20269;-76
2022/11/30 08:18:16;;;;;;;38.63;21.85;;;7.20;99.90;;;;;;5067821;28;20186;-77
2022/11/30 08:20:42;;;;;;;39.92;23.13;;;7.20;99.90;;;;;;5086509;28;20221;-76
2022/11/30 08:23:07;;;;;;;39.47;23.23;;;7.20;99.90;;;;;;5067167;28;20206;-76
2022/11/30 08:25:34;;;;;;;43.42;23.15;;;7.30;99.90;;;;;;5060858;28;20193;-76
2022/11/30 08:27:59;;;;;;;38.63;21.92;;;7.20;99.90;;;;;;5053587;28;20187;-78
2022/11/30 08:30:25;;;;;;;43.67;23.40;;;7.20;99.90;;;;;;5066477;28;20202;-75
2022/11/30 08:32:51;;;;;;;36.50;22.52;;;7.20;99.90;;;;;;5072322;28;20191;-75
2022/11/30 08:35:17;;;;;;;39.75;23.40;;;7.20;99.90;;;;;;5088319;28;20193;-76
2022/11/30 08:37:42;;;;;;;38.90;23.63;;;7.20;99.90;;;;;;5072185;28;20273;-77
2022/11/30 08:40:09;;;;;;;47.80;23.42;;;7.20;99.90;;;;;;5068378;28;20633;-77
2022/11/30 08:42:35;;;;;;;38.47;23.35;;;7.20;99.90;;;;;;5060043;28;20231;-78
2022/11/30 08:45:01;;;;;;;41.20;23.38;;;7.20;99.90;;;;;;5066328;28;20262;-78
2022/11/30 08:47:30;;;;;;;40.60;24.05;;;7.20;99.90;;;;;;5072470;28;20305;-77
2022/11/30 08:49:56;;;;;;;42.53;24.80;;;7.20;99.90;;;;;;5090724;28;20179;-76
2022/11/30 08:52:22;;;;;;;39.05;24.52;;;7.20;99.90;;;;;;5064648;28;21128;-79
2022/11/30 08:54:48;;;;;;;42.72;24.15;;;7.20;99.90;;;;;;5068186;28;20189;-80
2022/11/30 08:57:16;;;;;;;39.83;24.13;;;7.20;99.90;;;;;;5067893;28;20189;-77
2022/11/30 08:59:42;;;;;;;44.13;26.00;;;7.20;99.90;;;;;;5064986;28;20187;-76
2022/11/30 09:02:15;;;;;;;45.60;26.63;;;7.20;99.90;;;;;;5066505;28;20215;-79
2022/11/30 09:04:41;;;;;;;47.35;26.30;;;7.20;99.90;;;;;;5092872;28;20166;-77
2022/11/30 09:07:08;;;;;;;46.08;26.48;;;7.20;99.90;;;;;;5081963;28;20193;-75
2022/11/30 09:09:34;;;;;;;48.55;25.60;;;7.20;99.90;;;;;;5058190;28;20289;-75
2022/11/30 09:12:00;;;;;;;50.50;26.73;;;7.20;99.90;;;;;;5062870;28;20277;-75
2022/11/30 09:14:27;;;;;;;53.60;27.75;;;7.20;99.90;;;;;;5067178;28;20274;-76
2022/11/30 09:16:54;;;;;;;57.13;29.08;;;7.30;99.90;;;;;;5070306;28;20218;-75
2022/11/30 09:19:20;;;;;;;51.15;27.35;;;7.30;99.90;;;;;;5057728;28;20190;-76
2022/11/30 09:21:46;;;;;;;59.65;29.42;;;7.30;99.90;;;;;;5072105;28;20313;-76
2022/11/30 09:24:11;;;;;;;57.33;29.77;;;7.30;99.90;;;;;;5081969;28;20273;-75
2022/11/30 09:26:37;;;;;;;56.00;29.80;;;7.30;99.90;;;;;;5067917;28;20310;-76
2022/11/30 09:29:03;;;;;;;57.60;29.77;;;7.30;99.90;;;;;;5067727;28;20229;-75
2022/11/30 09:31:29;;;;;;;61.72;30.77;;;7.30;99.90;;;;;;5066517;28;20194;-77
2022/11/30 09:33:56;;;;;;;53.30;29.90;;;7.40;99.90;;;;;;5080046;28;20179;-76
2022/11/30 09:36:26;;;;;;;61.20;31.33;;;7.40;99.90;;;;;;5072244;28;20209;-76
2022/11/30 09:38:52;;;;;;;55.53;29.65;;;7.40;99.90;;;;;;5073478;28;20321;-75
2022/11/30 09:41:27;;;;;;;63.67;32.15;;;7.40;99.90;;;;;;5073596;28;20218;-77
2022/11/30 09:44:31;;;;;;;63.92;32.45;;;7.40;99.90;;;;;;5062799;28;20210;-76
2022/11/30 09:47:15;;;;;;;64.40;32.47;;;7.40;99.90;;;;;;5021770;28;20600;-76
2022/11/30 09:49:43;;;;;;;65.60;32.78;;;7.40;99.90;;;;;;5073846;28;20536;-77
2022/11/30 09:52:16;;;;;;;69.20;33.28;;;7.40;99.90;;;;;;5071681;28;20194;-77
2022/11/30 09:54:44;;;;;;;72.68;34.83;;;7.50;99.90;;;;;;5063612;28;20256;-77
2022/11/30 09:57:22;;;;;;;67.75;32.65;;;7.50;99.90;;;;;;5068247;28;20191;-75
2022/11/30 09:59:59;;;;;;;65.85;33.17;;;7.50;99.90;;;;;;5072486;28;20178;-75
2022/11/30 10:02:31;;;;;;;59.58;32.95;;;7.50;99.90;;;;;;5072781;28;20217;-76
2022/11/30 10:04:57;;;;;;;64.57;34.53;;;7.50;99.90;;;;;;5068179;28;20201;-75
2022/11/30 10:07:40;;;;;;;68.07;33.22;;;7.60;99.90;;;;;;5064713;28;20315;-77
2022/11/30 10:10:31;;;;;;;62.30;32.75;;;7.50;99.90;;;;;;5072217;28;20230;-77
2022/11/30 10:13:11;;;;;;;62.83;32.67;;;7.50;99.90;;;;;;5069864;28;20629;-75
2022/11/30 10:16:01;;;;;;;65.47;33.40;;;7.50;99.90;;;;;;5059876;28;20187;-77
2022/11/30 10:18:36;;;;;;;70.13;34.03;;;7.50;99.90;;;;;;5069365;28;20178;-78
2022/11/30 10:21:30;;;;;;;62.60;32.83;;;7.60;99.90;;;;;;5069511;28;20236;-75
2022/11/30 10:24:07;;;;;;;60.22;33.08;;;7.60;99.90;;;;;;5073552;28;20265;-77
2022/11/30 10:26:37;;;;;;;64.25;33.13;;;7.60;99.90;;;;;;5064999;28;20174;-79
2022/11/30 10:29:30;;;;;;;65.47;33.28;;;7.60;99.90;;;;;;5056875;28;20639;-76
2022/11/30 10:32:07;;;;;;;69.03;34.70;;;7.60;99.90;;;;;;5068909;28;20197;-76
2022/11/30 10:34:36;;;;;;;64.43;32.80;;;7.60;99.90;;;;;;5071871;28;20190;-76
2022/11/30 10:37:21;;;;;;;68.70;33.13;;;7.60;99.90;;;;;;5061547;28;20182;-80
2022/11/30 10:39:59;;;;;;;60.63;31.23;;;7.60;99.90;;;;;;5061636;28;20230;-77
2022/11/30 10:42:41;;;;;;;65.18;33.13;;;7.60;99.90;;;;;;5068401;28;20210;-77
2022/11/30 10:45:12;;;;;;;61.05;33.53;;;7.60;99.90;;;;;;5072848;28;20171;-77
2022/11/30 10:48:14;;;;;;;63.33;32.17;;;7.70;99.90;;;;;;5053945;28;20201;-80
2022/11/30 10:50:40;;;;;;;58.80;32.17;;;7.60;99.90;;;;;;5036212;28;20214;-76
2022/11/30 10:53:10;;;;;;;55.08;30.85;;;7.70;99.90;;;;;;5070060;28;20240;-76
2022/11/30 10:55:47;;;;;;;57.63;32.38;;;7.70;99.90;;;;;;5071565;28;20736;-76
2022/11/30 10:58:27;;;;;;;56.42;32.10;;;7.70;99.90;;;;;;5063849;28;20212;-75
2022/11/30 11:01:02;;;;;;;56.75;30.77;;;7.70;99.90;;;;;;5071242;28;20293;-76
2022/11/30 11:03:28;;;;;;;57.67;30.35;;;7.70;99.90;;;;;;5071398;28;20205;-75
2022/11/30 11:06:22;;;;;;;55.42;32.08;;;7.70;99.90;;;;;;5072290;28;20641;-77
2022/11/30 11:08:48;;;;;;;52.75;29.30;;;7.70;99.90;;;;;;5059103;28;20189;-76
2022/11/30 11:11:29;;;;;;;59.85;31.73;;;7.70;99.90;;;;;;5064707;28;20229;-75
2022/11/30 11:14:13;;;;;;;54.53;30.40;;;7.70;99.90;;;;;;5071628;28;20179;-74
2022/11/30 11:16:51;;;;;;;54.42;30.30;;;7.70;99.90;;;;;;5071376;28;20224;-75
2022/11/30 11:19:33;;;;;;;54.70;30.60;;;7.70;99.90;;;;;;5064752;28;20239;-77
2022/11/30 11:22:06;;;;;;;49.40;29.45;;;7.80;99.90;;;;;;5072016;28;20202;-75
2022/11/30 11:24:33;;;;;;;54.60;31.25;;;7.80;99.90;;;;;;5092503;28;20178;-77
2022/11/30 11:26:59;;;;;;;56.58;31.23;;;7.90;99.90;;;;;;5075021;28;20537;-76
2022/11/30 11:29:32;;;;;;;53.10;32.30;;;7.80;99.90;;;;;;5070325;28;20186;-82
2022/11/30 11:32:14;;;;;;;51.35;31.55;;;7.80;99.90;;;;;;5066349;28;20271;-76
2022/11/30 11:34:40;;;;;;;52.47;30.70;;;7.80;99.90;;;;;;5076436;28;20174;-76
2022/11/30 11:37:25;;;;;;;51.83;30.80;;;7.80;99.90;;;;;;5075584;28;20197;-76
2022/11/30 11:40:00;;;;;;;51.28;30.48;;;7.70;99.90;;;;;;5071354;28;20251;-78
2022/11/30 11:42:29;;;;;;;50.70;30.70;;;7.80;99.90;;;;;;5067858;28;20256;-75
2022/11/30 11:44:58;;;;;;;57.33;31.40;;;7.80;99.90;;;;;;5072728;28;20231;-76
2022/11/30 11:47:42;;;;;;;56.55;31.38;;;7.80;99.90;;;;;;5060114;28;20536;-76
2022/11/30 11:50:22;;;;;;;54.53;32.10;;;7.80;99.90;;;;;;5057223;28;20202;-76
2022/11/30 11:52:48;;;;;;;53.35;31.05;;;7.80;99.90;;;;;;5064215;28;20271;-76
2022/11/30 11:55:19;;;;;;;52.30;32.30;;;7.80;99.90;;;;;;5077201;28;20194;-75
2022/11/30 11:57:47;;;;;;;55.42;31.55;;;7.80;99.90;;;;;;5056612;28;20171;-75
2022/11/30 12:00:15;;;;;;;51.95;31.40;;;7.80;99.90;;;;;;5056959;28;20175;-76
2022/11/30 12:03:12;;;;;;;55.38;32.38;;;7.80;99.90;;;;;;5070314;28;20184;-78
2022/11/30 12:06:01;;;;;;;52.42;32.33;;;7.80;99.90;;;;;;5051778;28;20225;-75
2022/11/30 12:08:30;;;;;;;53.97;31.35;;;7.80;99.90;;;;;;5067358;28;20572;-79
2022/11/30 12:11:04;;;;;;;55.58;32.20;;;7.80;99.90;;;;;;5058260;28;20222;-79
2022/11/30 12:13:38;;;;;;;56.10;31.75;;;7.80;99.90;;;;;;5073558;28;20270;-75
2022/11/30 12:16:22;;;;;;;51.30;28.92;;;7.70;99.90;;;;;;5064609;28;20653;-76
2022/11/30 12:18:59;;;;;;;53.97;30.88;;;7.80;99.90;;;;;;5060904;28;20189;-81
2022/11/30 12:21:33;;;;;;;52.75;30.30;;;7.70;99.90;;;;;;5071865;28;20194;-77
2022/11/30 12:24:05;;;;;;;54.05;31.17;;;7.80;99.90;;;;;;5069862;28;20163;-74
2022/11/30 12:26:40;;;;;;;54.50;30.58;;;7.70;99.90;;;;;;5058470;28;20277;-77
2022/11/30 12:29:19;;;;;;;56.35;29.42;;;7.80;99.90;;;;;;5073091;28;20257;-76
2022/11/30 12:32:12;;;;;;;52.92;29.65;;;7.70;99.90;;;;;;5078471;28;20190;-76
2022/11/30 12:34:47;;;;;;;52.85;30.63;;;7.70;99.90;;;;;;5068415;28;20185;-77
2022/11/30 12:37:35;;;;;;;57.38;32.42;;;7.70;99.90;;;;;;5060343;28;20260;-78
2022/11/30 12:40:24;;;;;;;54.03;31.95;;;7.80;99.90;;;;;;5079676;28;20190;-75
2022/11/30 12:43:12;;;;;;;58.25;32.47;;;7.70;99.90;;;;;;5071971;28;20194;-77
2022/11/30 12:45:43;;;;;;;56.63;33.05;;;7.70;99.90;;;;;;5059595;28;20181;-76
2022/11/30 12:48:31;;;;;;;58.55;32.58;;;7.70;99.90;;;;;;5061631;28;20647;-75
2022/11/30 12:51:20;;;;;;;61.40;34.38;;;7.60;99.90;;;;;;5074273;28;20483;-76